sensor_id;sensor_type;location;lat;lon;timestamp;P1;durP1;ratioP1;P2;durP2;ratioP2
71196;SDS011;58918;51.652;4.864;2023-06-24T00:02:10;4.93;;;2.13;;
71196;SDS011;58918;51.652;4.864;2023-06-24T00:04:37;6.95;;;2.35;;
71196;SDS011;58918;51.652;4.864;2023-06-24T00:07:04;6.25;;;2.78;;
71196;SDS011;58918;51.652;4.864;2023-06-24T00:09:32;6.43;;;3.05;;
71196;SDS011;58918;51.652;4.864;2023-06-24T00:12:00;7.75;;;3.45;;
71196;SDS011;58918;51.652;4.864;2023-06-24T00:14:27;6.40;;;3.53;;
71196;SDS011;58918;51.652;4.864;2023-06-24T00:16:54;7.03;;;3.25;;
71196;SDS011;58918;51.652;4.864;2023-06-24T00:19:23;6.70;;;3.33;;
71196;SDS011;58918;51.652;4.864;2023-06-24T00:21:51;4.75;;;2.60;;
71196;SDS011;58918;51.652;4.864;2023-06-24T00:24:19;5.45;;;2.70;;
71196;SDS011;58918;51.652;4.864;2023-06-24T00:26:46;7.25;;;2.58;;
71196;SDS011;58918;51.652;4.864;2023-06-24T00:29:13;5.93;;;2.65;;
71196;SDS011;58918;51.652;4.864;2023-06-24T00:31:41;5.50;;;2.72;;
71196;SDS011;58918;51.652;4.864;2023-06-24T00:34:08;5.03;;;2.40;;
71196;SDS011;58918;51.652;4.864;2023-06-24T00:36:36;7.28;;;2.38;;
71196;SDS011;58918;51.652;4.864;2023-06-24T00:39:04;6.22;;;2.58;;
71196;SDS011;58918;51.652;4.864;2023-06-24T00:41:32;6.95;;;3.08;;
71196;SDS011;58918;51.652;4.864;2023-06-24T00:43:59;5.10;;;2.47;;
71196;SDS011;58918;51.652;4.864;2023-06-24T00:46:26;5.15;;;2.22;;
71196;SDS011;58918;51.652;4.864;2023-06-24T00:48:54;6.68;;;2.03;;
71196;SDS011;58918;51.652;4.864;2023-06-24T00:51:22;6.38;;;2.30;;
71196;SDS011;58918;51.652;4.864;2023-06-24T00:53:57;7.18;;;2.80;;
71196;SDS011;58918;51.652;4.864;2023-06-24T00:56:30;5.20;;;2.45;;
71196;SDS011;58918;51.652;4.864;2023-06-24T00:58:58;4.72;;;2.35;;
71196;SDS011;58918;51.652;4.864;2023-06-24T01:01:33;5.95;;;2.10;;
71196;SDS011;58918;51.652;4.864;2023-06-24T01:04:02;5.05;;;2.28;;
71196;SDS011;58918;51.652;4.864;2023-06-24T01:06:30;5.55;;;2.30;;
71196;SDS011;58918;51.652;4.864;2023-06-24T01:08:58;5.95;;;2.40;;
71196;SDS011;58918;51.652;4.864;2023-06-24T01:11:26;4.65;;;2.17;;
71196;SDS011;58918;51.652;4.864;2023-06-24T01:13:54;4.93;;;2.20;;
71196;SDS011;58918;51.652;4.864;2023-06-24T01:18:59;5.93;;;2.45;;
71196;SDS011;58918;51.652;4.864;2023-06-24T01:21:41;5.95;;;1.98;;
71196;SDS011;58918;51.652;4.864;2023-06-24T01:26:52;4.50;;;2.10;;
71196;SDS011;58918;51.652;4.864;2023-06-24T01:29:30;4.70;;;2.13;;
71196;SDS011;58918;51.652;4.864;2023-06-24T01:32:11;5.25;;;2.17;;
71196;SDS011;58918;51.652;4.864;2023-06-24T01:34:51;5.20;;;2.20;;
71196;SDS011;58918;51.652;4.864;2023-06-24T01:37:27;5.93;;;2.28;;
71196;SDS011;58918;51.652;4.864;2023-06-24T01:42:22;4.10;;;1.85;;
71196;SDS011;58918;51.652;4.864;2023-06-24T01:44:50;6.05;;;2.35;;
71196;SDS011;58918;51.652;4.864;2023-06-24T01:47:18;5.32;;;2.30;;
71196;SDS011;58918;51.652;4.864;2023-06-24T01:49:46;4.47;;;2.05;;
71196;SDS011;58918;51.652;4.864;2023-06-24T01:52:15;4.68;;;2.22;;
71196;SDS011;58918;51.652;4.864;2023-06-24T01:54:43;6.03;;;2.10;;
71196;SDS011;58918;51.652;4.864;2023-06-24T01:57:12;4.72;;;2.10;;
71196;SDS011;58918;51.652;4.864;2023-06-24T01:59:41;4.88;;;1.95;;
71196;SDS011;58918;51.652;4.864;2023-06-24T02:02:09;6.57;;;2.25;;
71196;SDS011;58918;51.652;4.864;2023-06-24T02:04:37;6.40;;;2.30;;
71196;SDS011;58918;51.652;4.864;2023-06-24T02:07:05;5.10;;;2.00;;
71196;SDS011;58918;51.652;4.864;2023-06-24T02:09:33;7.53;;;2.17;;
71196;SDS011;58918;51.652;4.864;2023-06-24T02:12:03;4.40;;;1.95;;
71196;SDS011;58918;51.652;4.864;2023-06-24T02:14:31;5.13;;;2.30;;
71196;SDS011;58918;51.652;4.864;2023-06-24T02:16:59;5.78;;;2.05;;
71196;SDS011;58918;51.652;4.864;2023-06-24T02:19:27;5.00;;;2.20;;
71196;SDS011;58918;51.652;4.864;2023-06-24T02:21:56;4.90;;;2.53;;
71196;SDS011;58918;51.652;4.864;2023-06-24T02:24:26;5.15;;;2.03;;
71196;SDS011;58918;51.652;4.864;2023-06-24T02:26:54;4.28;;;2.13;;
71196;SDS011;58918;51.652;4.864;2023-06-24T02:29:25;5.05;;;2.35;;
71196;SDS011;58918;51.652;4.864;2023-06-24T02:31:53;4.68;;;2.20;;
71196;SDS011;58918;51.652;4.864;2023-06-24T02:34:22;5.93;;;2.20;;
71196;SDS011;58918;51.652;4.864;2023-06-24T02:36:49;4.68;;;1.80;;
71196;SDS011;58918;51.652;4.864;2023-06-24T02:39:17;6.63;;;2.38;;
71196;SDS011;58918;51.652;4.864;2023-06-24T02:41:45;4.30;;;2.00;;
71196;SDS011;58918;51.652;4.864;2023-06-24T02:44:13;4.97;;;2.22;;
71196;SDS011;58918;51.652;4.864;2023-06-24T02:46:44;5.07;;;2.10;;
71196;SDS011;58918;51.652;4.864;2023-06-24T02:49:13;5.18;;;2.38;;
71196;SDS011;58918;51.652;4.864;2023-06-24T02:51:44;5.45;;;2.20;;
71196;SDS011;58918;51.652;4.864;2023-06-24T02:54:11;4.57;;;2.08;;
71196;SDS011;58918;51.652;4.864;2023-06-24T02:56:39;6.32;;;2.45;;
71196;SDS011;58918;51.652;4.864;2023-06-24T02:59:10;5.93;;;2.22;;
71196;SDS011;58918;51.652;4.864;2023-06-24T03:01:37;4.75;;;2.30;;
71196;SDS011;58918;51.652;4.864;2023-06-24T03:04:06;5.57;;;2.38;;
71196;SDS011;58918;51.652;4.864;2023-06-24T03:06:33;3.88;;;1.88;;
71196;SDS011;58918;51.652;4.864;2023-06-24T03:09:03;5.20;;;2.28;;
71196;SDS011;58918;51.652;4.864;2023-06-24T03:11:30;5.30;;;2.47;;
71196;SDS011;58918;51.652;4.864;2023-06-24T03:13:57;4.32;;;2.22;;
71196;SDS011;58918;51.652;4.864;2023-06-24T03:16:25;5.07;;;2.25;;
71196;SDS011;58918;51.652;4.864;2023-06-24T03:18:52;5.28;;;2.17;;
71196;SDS011;58918;51.652;4.864;2023-06-24T03:21:19;4.55;;;2.20;;
71196;SDS011;58918;51.652;4.864;2023-06-24T03:23:46;5.43;;;2.30;;
71196;SDS011;58918;51.652;4.864;2023-06-24T03:26:14;5.10;;;2.10;;
71196;SDS011;58918;51.652;4.864;2023-06-24T03:28:41;4.80;;;2.30;;
71196;SDS011;58918;51.652;4.864;2023-06-24T03:31:08;7.15;;;2.80;;
71196;SDS011;58918;51.652;4.864;2023-06-24T03:33:35;4.32;;;2.00;;
71196;SDS011;58918;51.652;4.864;2023-06-24T03:36:03;4.57;;;2.38;;
71196;SDS011;58918;51.652;4.864;2023-06-24T03:38:30;7.15;;;2.47;;
71196;SDS011;58918;51.652;4.864;2023-06-24T03:40:58;4.68;;;2.03;;
71196;SDS011;58918;51.652;4.864;2023-06-24T03:43:25;5.13;;;2.50;;
71196;SDS011;58918;51.652;4.864;2023-06-24T03:45:52;4.75;;;2.40;;
71196;SDS011;58918;51.652;4.864;2023-06-24T03:48:20;6.53;;;2.63;;
71196;SDS011;58918;51.652;4.864;2023-06-24T03:50:47;5.20;;;2.35;;
71196;SDS011;58918;51.652;4.864;2023-06-24T03:53:14;5.50;;;2.42;;
71196;SDS011;58918;51.652;4.864;2023-06-24T03:55:41;5.90;;;2.80;;
71196;SDS011;58918;51.652;4.864;2023-06-24T03:58:08;5.90;;;2.72;;
71196;SDS011;58918;51.652;4.864;2023-06-24T04:00:36;6.15;;;2.38;;
71196;SDS011;58918;51.652;4.864;2023-06-24T04:03:06;7.07;;;2.42;;
71196;SDS011;58918;51.652;4.864;2023-06-24T04:05:34;6.88;;;2.55;;
71196;SDS011;58918;51.652;4.864;2023-06-24T04:08:01;6.22;;;2.55;;
71196;SDS011;58918;51.652;4.864;2023-06-24T04:10:32;5.75;;;2.65;;
71196;SDS011;58918;51.652;4.864;2023-06-24T04:12:59;5.53;;;2.45;;
71196;SDS011;58918;51.652;4.864;2023-06-24T04:15:26;7.22;;;2.58;;
71196;SDS011;58918;51.652;4.864;2023-06-24T04:17:53;10.85;;;2.90;;
71196;SDS011;58918;51.652;4.864;2023-06-24T04:20:21;6.85;;;2.70;;
71196;SDS011;58918;51.652;4.864;2023-06-24T04:22:50;15.25;;;3.03;;
71196;SDS011;58918;51.652;4.864;2023-06-24T04:25:17;11.60;;;3.00;;
71196;SDS011;58918;51.652;4.864;2023-06-24T04:27:44;5.47;;;2.58;;
71196;SDS011;58918;51.652;4.864;2023-06-24T04:30:11;8.05;;;2.90;;
71196;SDS011;58918;51.652;4.864;2023-06-24T04:32:39;8.27;;;2.80;;
71196;SDS011;58918;51.652;4.864;2023-06-24T04:35:07;5.68;;;2.25;;
71196;SDS011;58918;51.652;4.864;2023-06-24T04:37:34;6.15;;;2.80;;
71196;SDS011;58918;51.652;4.864;2023-06-24T04:40:02;7.97;;;2.95;;
71196;SDS011;58918;51.652;4.864;2023-06-24T04:42:30;4.97;;;2.53;;
71196;SDS011;58918;51.652;4.864;2023-06-24T04:44:57;5.93;;;2.58;;
71196;SDS011;58918;51.652;4.864;2023-06-24T04:47:24;5.38;;;2.20;;
71196;SDS011;58918;51.652;4.864;2023-06-24T04:49:51;6.00;;;2.70;;
71196;SDS011;58918;51.652;4.864;2023-06-24T04:52:18;8.27;;;3.13;;
71196;SDS011;58918;51.652;4.864;2023-06-24T04:54:46;5.82;;;2.75;;
71196;SDS011;58918;51.652;4.864;2023-06-24T04:57:22;8.48;;;2.72;;
71196;SDS011;58918;51.652;4.864;2023-06-24T04:59:50;6.57;;;2.95;;
71196;SDS011;58918;51.652;4.864;2023-06-24T05:02:17;7.50;;;2.88;;
71196;SDS011;58918;51.652;4.864;2023-06-24T05:04:44;5.65;;;2.88;;
71196;SDS011;58918;51.652;4.864;2023-06-24T05:07:11;6.38;;;2.97;;
71196;SDS011;58918;51.652;4.864;2023-06-24T05:09:39;5.65;;;2.45;;
71196;SDS011;58918;51.652;4.864;2023-06-24T05:12:06;6.35;;;2.92;;
71196;SDS011;58918;51.652;4.864;2023-06-24T05:14:34;6.25;;;2.50;;
71196;SDS011;58918;51.652;4.864;2023-06-24T05:17:05;6.20;;;3.55;;
71196;SDS011;58918;51.652;4.864;2023-06-24T05:19:32;6.85;;;2.80;;
71196;SDS011;58918;51.652;4.864;2023-06-24T05:21:59;7.15;;;2.85;;
71196;SDS011;58918;51.652;4.864;2023-06-24T05:24:26;8.73;;;2.90;;
71196;SDS011;58918;51.652;4.864;2023-06-24T05:26:54;6.60;;;2.65;;
71196;SDS011;58918;51.652;4.864;2023-06-24T05:29:21;6.88;;;2.70;;
71196;SDS011;58918;51.652;4.864;2023-06-24T05:31:48;7.00;;;2.75;;
71196;SDS011;58918;51.652;4.864;2023-06-24T05:34:15;8.98;;;2.95;;
71196;SDS011;58918;51.652;4.864;2023-06-24T05:36:43;5.93;;;2.90;;
71196;SDS011;58918;51.652;4.864;2023-06-24T05:39:10;6.00;;;2.85;;
71196;SDS011;58918;51.652;4.864;2023-06-24T05:41:39;7.65;;;2.75;;
71196;SDS011;58918;51.652;4.864;2023-06-24T05:44:07;6.53;;;3.00;;
71196;SDS011;58918;51.652;4.864;2023-06-24T05:46:37;8.77;;;3.40;;
71196;SDS011;58918;51.652;4.864;2023-06-24T05:49:06;8.05;;;3.33;;
71196;SDS011;58918;51.652;4.864;2023-06-24T05:51:33;6.72;;;2.80;;
71196;SDS011;58918;51.652;4.864;2023-06-24T05:54:01;6.90;;;3.00;;
71196;SDS011;58918;51.652;4.864;2023-06-24T05:56:29;7.60;;;2.83;;
71196;SDS011;58918;51.652;4.864;2023-06-24T05:58:59;8.13;;;3.15;;
71196;SDS011;58918;51.652;4.864;2023-06-24T06:01:27;7.57;;;2.65;;
71196;SDS011;58918;51.652;4.864;2023-06-24T06:03:54;5.82;;;2.92;;
71196;SDS011;58918;51.652;4.864;2023-06-24T06:06:21;7.28;;;2.95;;
71196;SDS011;58918;51.652;4.864;2023-06-24T06:08:48;8.02;;;2.90;;
71196;SDS011;58918;51.652;4.864;2023-06-24T06:11:15;6.40;;;2.83;;
71196;SDS011;58918;51.652;4.864;2023-06-24T06:13:43;6.10;;;2.70;;
71196;SDS011;58918;51.652;4.864;2023-06-24T06:16:10;7.65;;;3.33;;
71196;SDS011;58918;51.652;4.864;2023-06-24T06:18:37;6.25;;;2.95;;
71196;SDS011;58918;51.652;4.864;2023-06-24T06:21:04;6.63;;;3.08;;
71196;SDS011;58918;51.652;4.864;2023-06-24T06:23:32;6.97;;;2.58;;
71196;SDS011;58918;51.652;4.864;2023-06-24T06:25:59;7.25;;;3.30;;
71196;SDS011;58918;51.652;4.864;2023-06-24T06:28:26;6.75;;;2.58;;
71196;SDS011;58918;51.652;4.864;2023-06-24T06:30:53;9.80;;;2.70;;
71196;SDS011;58918;51.652;4.864;2023-06-24T06:33:23;6.80;;;3.17;;
71196;SDS011;58918;51.652;4.864;2023-06-24T06:35:50;5.80;;;2.90;;
71196;SDS011;58918;51.652;4.864;2023-06-24T06:38:17;7.20;;;2.60;;
71196;SDS011;58918;51.652;4.864;2023-06-24T06:40:44;6.47;;;2.45;;
71196;SDS011;58918;51.652;4.864;2023-06-24T06:43:12;4.90;;;2.35;;
71196;SDS011;58918;51.652;4.864;2023-06-24T06:45:39;5.38;;;2.78;;
71196;SDS011;58918;51.652;4.864;2023-06-24T06:48:06;6.15;;;2.78;;
71196;SDS011;58918;51.652;4.864;2023-06-24T06:50:34;6.93;;;2.90;;
71196;SDS011;58918;51.652;4.864;2023-06-24T06:53:02;7.38;;;3.00;;
71196;SDS011;58918;51.652;4.864;2023-06-24T06:55:29;5.95;;;2.78;;
71196;SDS011;58918;51.652;4.864;2023-06-24T06:57:56;7.03;;;2.85;;
71196;SDS011;58918;51.652;4.864;2023-06-24T07:00:24;5.65;;;2.97;;
71196;SDS011;58918;51.652;4.864;2023-06-24T07:02:51;6.88;;;2.80;;
71196;SDS011;58918;51.652;4.864;2023-06-24T07:05:18;6.15;;;2.85;;
71196;SDS011;58918;51.652;4.864;2023-06-24T07:07:46;7.40;;;2.63;;
71196;SDS011;58918;51.652;4.864;2023-06-24T07:10:13;6.63;;;2.83;;
71196;SDS011;58918;51.652;4.864;2023-06-24T07:12:40;6.80;;;2.78;;
71196;SDS011;58918;51.652;4.864;2023-06-24T07:15:08;5.80;;;2.50;;
71196;SDS011;58918;51.652;4.864;2023-06-24T07:17:38;10.75;;;2.63;;
71196;SDS011;58918;51.652;4.864;2023-06-24T07:20:06;7.32;;;2.60;;
71196;SDS011;58918;51.652;4.864;2023-06-24T07:22:33;5.47;;;2.50;;
71196;SDS011;58918;51.652;4.864;2023-06-24T07:25:00;5.72;;;2.40;;
71196;SDS011;58918;51.652;4.864;2023-06-24T07:27:27;7.55;;;3.00;;
71196;SDS011;58918;51.652;4.864;2023-06-24T07:29:55;9.43;;;3.33;;
71196;SDS011;58918;51.652;4.864;2023-06-24T07:32:22;5.45;;;2.60;;
71196;SDS011;58918;51.652;4.864;2023-06-24T07:34:49;5.40;;;2.75;;
71196;SDS011;58918;51.652;4.864;2023-06-24T07:37:17;5.55;;;2.50;;
71196;SDS011;58918;51.652;4.864;2023-06-24T07:39:50;7.60;;;3.00;;
71196;SDS011;58918;51.652;4.864;2023-06-24T07:42:17;6.10;;;2.50;;
71196;SDS011;58918;51.652;4.864;2023-06-24T07:44:48;10.07;;;4.40;;
71196;SDS011;58918;51.652;4.864;2023-06-24T07:47:18;10.05;;;4.20;;
71196;SDS011;58918;51.652;4.864;2023-06-24T07:49:46;6.82;;;3.35;;
71196;SDS011;58918;51.652;4.864;2023-06-24T07:52:13;7.15;;;2.92;;
71196;SDS011;58918;51.652;4.864;2023-06-24T07:54:40;6.18;;;2.50;;
71196;SDS011;58918;51.652;4.864;2023-06-24T07:57:08;10.55;;;3.50;;
71196;SDS011;58918;51.652;4.864;2023-06-24T07:59:35;8.73;;;4.13;;
71196;SDS011;58918;51.652;4.864;2023-06-24T08:02:02;6.80;;;3.17;;
71196;SDS011;58918;51.652;4.864;2023-06-24T08:04:30;7.50;;;3.20;;
71196;SDS011;58918;51.652;4.864;2023-06-24T08:06:57;11.27;;;4.28;;
71196;SDS011;58918;51.652;4.864;2023-06-24T08:09:24;8.85;;;3.75;;
71196;SDS011;58918;51.652;4.864;2023-06-24T08:11:51;9.73;;;4.22;;
71196;SDS011;58918;51.652;4.864;2023-06-24T08:14:19;13.38;;;4.03;;
71196;SDS011;58918;51.652;4.864;2023-06-24T08:16:46;10.00;;;3.50;;
71196;SDS011;58918;51.652;4.864;2023-06-24T08:19:13;10.25;;;4.28;;
71196;SDS011;58918;51.652;4.864;2023-06-24T08:21:40;5.45;;;2.85;;
71196;SDS011;58918;51.652;4.864;2023-06-24T08:24:08;8.60;;;4.25;;
71196;SDS011;58918;51.652;4.864;2023-06-24T08:26:35;6.15;;;2.60;;
71196;SDS011;58918;51.652;4.864;2023-06-24T08:29:03;6.65;;;2.88;;
71196;SDS011;58918;51.652;4.864;2023-06-24T08:31:30;6.00;;;2.80;;
71196;SDS011;58918;51.652;4.864;2023-06-24T08:34:00;9.02;;;3.35;;
71196;SDS011;58918;51.652;4.864;2023-06-24T08:36:33;9.60;;;3.38;;
71196;SDS011;58918;51.652;4.864;2023-06-24T08:39:00;7.65;;;3.60;;
71196;SDS011;58918;51.652;4.864;2023-06-24T08:41:27;8.25;;;3.22;;
71196;SDS011;58918;51.652;4.864;2023-06-24T08:43:54;6.15;;;2.80;;
71196;SDS011;58918;51.652;4.864;2023-06-24T08:46:23;7.13;;;3.85;;
71196;SDS011;58918;51.652;4.864;2023-06-24T08:48:54;6.55;;;3.22;;
71196;SDS011;58918;51.652;4.864;2023-06-24T08:51:27;8.63;;;3.75;;
71196;SDS011;58918;51.652;4.864;2023-06-24T08:53:56;7.78;;;3.63;;
71196;SDS011;58918;51.652;4.864;2023-06-24T08:56:24;6.78;;;3.08;;
71196;SDS011;58918;51.652;4.864;2023-06-24T08:58:51;5.30;;;2.72;;
71196;SDS011;58918;51.652;4.864;2023-06-24T09:01:19;8.70;;;3.55;;
71196;SDS011;58918;51.652;4.864;2023-06-24T09:03:49;7.93;;;3.20;;
71196;SDS011;58918;51.652;4.864;2023-06-24T09:06:17;11.40;;;3.30;;
71196;SDS011;58918;51.652;4.864;2023-06-24T09:08:56;7.57;;;3.20;;
71196;SDS011;58918;51.652;4.864;2023-06-24T09:11:24;6.47;;;3.22;;
71196;SDS011;58918;51.652;4.864;2023-06-24T09:13:59;5.78;;;2.80;;
71196;SDS011;58918;51.652;4.864;2023-06-24T09:16:26;8.10;;;3.65;;
71196;SDS011;58918;51.652;4.864;2023-06-24T09:18:54;9.75;;;3.75;;
71196;SDS011;58918;51.652;4.864;2023-06-24T09:21:22;8.68;;;3.17;;
71196;SDS011;58918;51.652;4.864;2023-06-24T09:23:54;7.22;;;3.38;;
71196;SDS011;58918;51.652;4.864;2023-06-24T09:26:24;9.18;;;3.67;;
71196;SDS011;58918;51.652;4.864;2023-06-24T09:28:52;7.30;;;3.50;;
71196;SDS011;58918;51.652;4.864;2023-06-24T09:31:20;9.15;;;3.80;;
71196;SDS011;58918;51.652;4.864;2023-06-24T09:33:50;7.05;;;3.90;;
71196;SDS011;58918;51.652;4.864;2023-06-24T09:36:17;5.82;;;2.63;;
71196;SDS011;58918;51.652;4.864;2023-06-24T09:38:44;9.13;;;3.50;;
71196;SDS011;58918;51.652;4.864;2023-06-24T09:41:12;6.88;;;3.15;;
71196;SDS011;58918;51.652;4.864;2023-06-24T09:43:41;5.32;;;2.50;;
71196;SDS011;58918;51.652;4.864;2023-06-24T09:46:10;9.93;;;3.03;;
71196;SDS011;58918;51.652;4.864;2023-06-24T09:48:38;7.93;;;3.30;;
71196;SDS011;58918;51.652;4.864;2023-06-24T09:51:05;8.23;;;3.05;;
71196;SDS011;58918;51.652;4.864;2023-06-24T09:53:34;12.07;;;3.65;;
71196;SDS011;58918;51.652;4.864;2023-06-24T09:56:03;9.82;;;2.92;;
71196;SDS011;58918;51.652;4.864;2023-06-24T09:58:31;7.90;;;3.20;;
71196;SDS011;58918;51.652;4.864;2023-06-24T10:01:03;8.02;;;2.80;;
71196;SDS011;58918;51.652;4.864;2023-06-24T10:03:35;9.15;;;3.22;;
71196;SDS011;58918;51.652;4.864;2023-06-24T10:06:03;8.27;;;3.17;;
71196;SDS011;58918;51.652;4.864;2023-06-24T10:08:31;9.38;;;3.10;;
71196;SDS011;58918;51.652;4.864;2023-06-24T10:10:59;6.00;;;3.25;;
71196;SDS011;58918;51.652;4.864;2023-06-24T10:13:28;7.28;;;3.15;;
71196;SDS011;58918;51.652;4.864;2023-06-24T10:15:55;6.40;;;3.00;;
71196;SDS011;58918;51.652;4.864;2023-06-24T10:18:33;8.02;;;3.70;;
71196;SDS011;58918;51.652;4.864;2023-06-24T10:21:04;7.82;;;3.35;;
71196;SDS011;58918;51.652;4.864;2023-06-24T10:23:39;8.65;;;3.10;;
71196;SDS011;58918;51.652;4.864;2023-06-24T10:26:08;7.20;;;3.60;;
71196;SDS011;58918;51.652;4.864;2023-06-24T10:31:43;6.18;;;2.72;;
71196;SDS011;58918;51.652;4.864;2023-06-24T10:36:55;6.03;;;2.60;;
71196;SDS011;58918;51.652;4.864;2023-06-24T10:39:36;7.18;;;2.85;;
71196;SDS011;58918;51.652;4.864;2023-06-24T10:44:49;5.88;;;2.70;;
71196;SDS011;58918;51.652;4.864;2023-06-24T10:47:17;6.55;;;3.03;;
71196;SDS011;58918;51.652;4.864;2023-06-24T10:49:45;7.60;;;2.83;;
71196;SDS011;58918;51.652;4.864;2023-06-24T10:52:12;6.15;;;2.70;;
71196;SDS011;58918;51.652;4.864;2023-06-24T10:54:40;8.50;;;3.00;;
71196;SDS011;58918;51.652;4.864;2023-06-24T10:57:09;6.15;;;2.72;;
71196;SDS011;58918;51.652;4.864;2023-06-24T10:59:40;6.38;;;2.33;;
71196;SDS011;58918;51.652;4.864;2023-06-24T11:02:08;7.53;;;2.40;;
71196;SDS011;58918;51.652;4.864;2023-06-24T11:04:46;7.50;;;2.97;;
71196;SDS011;58918;51.652;4.864;2023-06-24T11:07:13;4.90;;;2.47;;
71196;SDS011;58918;51.652;4.864;2023-06-24T11:09:41;6.28;;;2.80;;
71196;SDS011;58918;51.652;4.864;2023-06-24T11:12:09;5.88;;;2.35;;
71196;SDS011;58918;51.652;4.864;2023-06-24T11:14:39;5.97;;;2.35;;
71196;SDS011;58918;51.652;4.864;2023-06-24T11:17:07;6.03;;;2.70;;
71196;SDS011;58918;51.652;4.864;2023-06-24T11:19:34;7.57;;;2.80;;
71196;SDS011;58918;51.652;4.864;2023-06-24T11:22:06;5.15;;;2.55;;
71196;SDS011;58918;51.652;4.864;2023-06-24T11:24:33;8.55;;;3.65;;
71196;SDS011;58918;51.652;4.864;2023-06-24T11:27:01;9.13;;;4.28;;
71196;SDS011;58918;51.652;4.864;2023-06-24T11:29:29;9.90;;;3.22;;
71196;SDS011;58918;51.652;4.864;2023-06-24T11:31:56;6.78;;;2.85;;
71196;SDS011;58918;51.652;4.864;2023-06-24T11:34:23;8.27;;;3.67;;
71196;SDS011;58918;51.652;4.864;2023-06-24T11:36:51;7.50;;;2.80;;
71196;SDS011;58918;51.652;4.864;2023-06-24T11:39:22;9.75;;;3.88;;
71196;SDS011;58918;51.652;4.864;2023-06-24T11:41:50;6.15;;;2.58;;
71196;SDS011;58918;51.652;4.864;2023-06-24T11:44:21;7.40;;;3.20;;
71196;SDS011;58918;51.652;4.864;2023-06-24T11:46:50;8.23;;;4.10;;
71196;SDS011;58918;51.652;4.864;2023-06-24T11:49:18;8.90;;;3.75;;
71196;SDS011;58918;51.652;4.864;2023-06-24T11:51:49;7.57;;;3.30;;
71196;SDS011;58918;51.652;4.864;2023-06-24T11:54:17;6.22;;;3.45;;
71196;SDS011;58918;51.652;4.864;2023-06-24T11:59:19;7.10;;;2.72;;
71196;SDS011;58918;51.652;4.864;2023-06-24T12:01:56;7.35;;;3.28;;
71196;SDS011;58918;51.652;4.864;2023-06-24T12:04:27;7.13;;;3.25;;
71196;SDS011;58918;51.652;4.864;2023-06-24T12:06:55;7.32;;;3.38;;
71196;SDS011;58918;51.652;4.864;2023-06-24T12:09:22;8.98;;;4.07;;
71196;SDS011;58918;51.652;4.864;2023-06-24T12:11:51;7.63;;;3.50;;
71196;SDS011;58918;51.652;4.864;2023-06-24T12:14:18;7.78;;;3.20;;
71196;SDS011;58918;51.652;4.864;2023-06-24T12:16:45;7.32;;;4.15;;
71196;SDS011;58918;51.652;4.864;2023-06-24T12:19:13;8.38;;;3.10;;
71196;SDS011;58918;51.652;4.864;2023-06-24T12:21:40;6.82;;;3.42;;
71196;SDS011;58918;51.652;4.864;2023-06-24T12:24:07;7.22;;;3.10;;
71196;SDS011;58918;51.652;4.864;2023-06-24T12:26:34;6.88;;;3.15;;
71196;SDS011;58918;51.652;4.864;2023-06-24T12:29:02;5.82;;;2.30;;
71196;SDS011;58918;51.652;4.864;2023-06-24T12:31:30;7.88;;;3.70;;
71196;SDS011;58918;51.652;4.864;2023-06-24T12:33:58;5.35;;;2.92;;
71196;SDS011;58918;51.652;4.864;2023-06-24T12:36:25;6.93;;;3.15;;
71196;SDS011;58918;51.652;4.864;2023-06-24T12:38:52;7.60;;;3.33;;
71196;SDS011;58918;51.652;4.864;2023-06-24T12:41:19;6.68;;;3.42;;
71196;SDS011;58918;51.652;4.864;2023-06-24T12:43:47;7.40;;;3.10;;
71196;SDS011;58918;51.652;4.864;2023-06-24T12:46:15;10.20;;;3.88;;
71196;SDS011;58918;51.652;4.864;2023-06-24T12:48:42;7.88;;;3.55;;
71196;SDS011;58918;51.652;4.864;2023-06-24T12:51:10;8.90;;;3.70;;
71196;SDS011;58918;51.652;4.864;2023-06-24T12:53:37;5.25;;;2.28;;
71196;SDS011;58918;51.652;4.864;2023-06-24T12:56:04;10.27;;;4.53;;
71196;SDS011;58918;51.652;4.864;2023-06-24T12:58:31;9.68;;;4.88;;
71196;SDS011;58918;51.652;4.864;2023-06-24T13:00:58;8.55;;;3.97;;
71196;SDS011;58918;51.652;4.864;2023-06-24T13:03:26;8.27;;;3.72;;
71196;SDS011;58918;51.652;4.864;2023-06-24T13:05:53;7.32;;;2.95;;
71196;SDS011;58918;51.652;4.864;2023-06-24T13:08:20;7.53;;;3.42;;
71196;SDS011;58918;51.652;4.864;2023-06-24T13:10:47;6.28;;;2.65;;
71196;SDS011;58918;51.652;4.864;2023-06-24T13:13:14;10.10;;;4.00;;
71196;SDS011;58918;51.652;4.864;2023-06-24T13:15:42;6.15;;;2.90;;
71196;SDS011;58918;51.652;4.864;2023-06-24T13:18:11;7.45;;;2.83;;
71196;SDS011;58918;51.652;4.864;2023-06-24T13:20:38;8.00;;;3.92;;
71196;SDS011;58918;51.652;4.864;2023-06-24T13:23:06;12.18;;;3.40;;
71196;SDS011;58918;51.652;4.864;2023-06-24T13:25:33;7.05;;;3.70;;
71196;SDS011;58918;51.652;4.864;2023-06-24T13:28:01;9.48;;;4.15;;
71196;SDS011;58918;51.652;4.864;2023-06-24T13:30:28;8.77;;;3.85;;
71196;SDS011;58918;51.652;4.864;2023-06-24T13:32:55;10.13;;;4.25;;
71196;SDS011;58918;51.652;4.864;2023-06-24T13:35:23;6.75;;;2.97;;
71196;SDS011;58918;51.652;4.864;2023-06-24T13:37:50;10.63;;;3.47;;
71196;SDS011;58918;51.652;4.864;2023-06-24T13:40:17;5.75;;;3.17;;
71196;SDS011;58918;51.652;4.864;2023-06-24T13:42:44;7.93;;;4.05;;
71196;SDS011;58918;51.652;4.864;2023-06-24T13:45:12;8.55;;;3.40;;
71196;SDS011;58918;51.652;4.864;2023-06-24T13:47:40;9.95;;;3.00;;
71196;SDS011;58918;51.652;4.864;2023-06-24T13:50:07;7.07;;;3.60;;
71196;SDS011;58918;51.652;4.864;2023-06-24T13:52:35;7.28;;;2.92;;
71196;SDS011;58918;51.652;4.864;2023-06-24T13:55:02;8.00;;;3.78;;
71196;SDS011;58918;51.652;4.864;2023-06-24T13:57:29;7.97;;;3.42;;
71196;SDS011;58918;51.652;4.864;2023-06-24T13:59:56;9.07;;;4.47;;
71196;SDS011;58918;51.652;4.864;2023-06-24T14:02:24;6.25;;;3.33;;
71196;SDS011;58918;51.652;4.864;2023-06-24T14:04:51;8.77;;;3.95;;
71196;SDS011;58918;51.652;4.864;2023-06-24T14:07:19;6.90;;;3.60;;
71196;SDS011;58918;51.652;4.864;2023-06-24T14:09:46;8.10;;;3.63;;
71196;SDS011;58918;51.652;4.864;2023-06-24T14:12:13;7.55;;;3.00;;
71196;SDS011;58918;51.652;4.864;2023-06-24T14:14:40;7.20;;;2.75;;
71196;SDS011;58918;51.652;4.864;2023-06-24T14:17:08;6.50;;;2.85;;
71196;SDS011;58918;51.652;4.864;2023-06-24T14:19:40;7.18;;;2.92;;
71196;SDS011;58918;51.652;4.864;2023-06-24T14:22:07;5.45;;;2.67;;
71196;SDS011;58918;51.652;4.864;2023-06-24T14:24:35;4.97;;;2.38;;
71196;SDS011;58918;51.652;4.864;2023-06-24T14:27:06;5.82;;;2.70;;
71196;SDS011;58918;51.652;4.864;2023-06-24T14:29:34;6.05;;;2.85;;
71196;SDS011;58918;51.652;4.864;2023-06-24T14:32:01;8.55;;;2.50;;
71196;SDS011;58918;51.652;4.864;2023-06-24T14:34:28;8.63;;;3.42;;
71196;SDS011;58918;51.652;4.864;2023-06-24T14:36:56;8.00;;;3.80;;
71196;SDS011;58918;51.652;4.864;2023-06-24T14:39:23;6.00;;;2.83;;
71196;SDS011;58918;51.652;4.864;2023-06-24T14:41:50;7.13;;;2.50;;
71196;SDS011;58918;51.652;4.864;2023-06-24T14:44:18;5.22;;;2.60;;
71196;SDS011;58918;51.652;4.864;2023-06-24T14:46:45;5.70;;;2.75;;
71196;SDS011;58918;51.652;4.864;2023-06-24T14:49:12;7.40;;;3.22;;
71196;SDS011;58918;51.652;4.864;2023-06-24T14:51:39;6.63;;;2.70;;
71196;SDS011;58918;51.652;4.864;2023-06-24T14:54:06;6.63;;;2.70;;
71196;SDS011;58918;51.652;4.864;2023-06-24T14:56:34;5.95;;;2.97;;
71196;SDS011;58918;51.652;4.864;2023-06-24T14:59:01;6.70;;;3.38;;
71196;SDS011;58918;51.652;4.864;2023-06-24T15:01:28;7.88;;;3.42;;
71196;SDS011;58918;51.652;4.864;2023-06-24T15:03:55;6.63;;;2.70;;
71196;SDS011;58918;51.652;4.864;2023-06-24T15:06:23;9.10;;;3.10;;
71196;SDS011;58918;51.652;4.864;2023-06-24T15:08:50;6.05;;;2.58;;
71196;SDS011;58918;51.652;4.864;2023-06-24T15:11:17;7.55;;;3.55;;
71196;SDS011;58918;51.652;4.864;2023-06-24T15:13:44;6.25;;;2.65;;